createdAt,value
2022-11-15T00:01:53.715Z,21.17
2022-11-15T00:04:39.407Z,19.90
2022-11-15T00:07:53.424Z,20.35
2022-11-15T00:10:30.667Z,21.27
2022-11-15T00:13:16.665Z,20.75
2022-11-15T00:16:03.190Z,20.27
2022-11-15T00:18:51.146Z,20.75
2022-11-15T00:21:37.011Z,19.98
2022-11-15T00:24:23.064Z,20.47
2022-11-15T00:27:08.829Z,19.92
2022-11-15T00:29:54.823Z,20.05
2022-11-15T00:32:40.576Z,19.83
2022-11-15T00:35:28.119Z,19.90
2022-11-15T00:38:13.769Z,20.30
2022-11-15T00:40:59.602Z,20.00
2022-11-15T00:43:45.577Z,20.90
2022-11-15T00:46:31.465Z,20.35
2022-11-15T00:49:17.332Z,19.92
2022-11-15T00:52:04.732Z,20.37
2022-11-15T00:54:50.299Z,20.65
2022-11-15T00:57:36.150Z,20.15
2022-11-15T01:00:22.045Z,20.67
2022-11-15T01:03:07.871Z,19.92
2022-11-15T01:05:53.835Z,20.47
2022-11-15T01:08:41.669Z,20.08
2022-11-15T01:11:27.267Z,20.67
2022-11-15T01:14:13.088Z,20.00
2022-11-15T01:16:58.960Z,20.42
2022-11-15T01:19:44.833Z,21.33
2022-11-15T01:22:30.610Z,20.00
2022-11-15T01:25:17.668Z,20.00
2022-11-15T01:28:03.812Z,20.10
2022-11-15T01:30:49.397Z,20.70
2022-11-15T01:33:35.875Z,20.00
2022-11-15T01:36:23.628Z,19.90
2022-11-15T01:39:09.411Z,20.40
2022-11-15T01:41:56.775Z,21.45
2022-11-15T01:44:46.667Z,20.52
2022-11-15T01:47:38.305Z,20.37
2022-11-15T01:50:28.824Z,20.38
2022-11-15T01:53:15.377Z,19.52
2022-11-15T01:56:04.556Z,20.33
2022-11-15T01:58:52.507Z,20.80
2022-11-15T02:01:39.125Z,19.10
2022-11-15T02:04:28.157Z,20.20
2022-11-15T02:07:16.537Z,20.70
2022-11-15T02:10:07.917Z,20.15
2022-11-15T02:12:54.283Z,20.90
2022-11-15T02:15:45.913Z,19.73
2022-11-15T02:18:36.364Z,20.02
2022-11-15T02:21:32.298Z,19.10
2022-11-15T02:24:42.582Z,21.58
2022-11-15T02:28:11.713Z,19.52
2022-11-15T02:31:04.870Z,20.43
2022-11-15T02:34:00.260Z,19.88
2022-11-15T02:36:59.243Z,20.80
2022-11-15T02:39:51.450Z,20.50
2022-11-15T02:43:07.951Z,19.35
2022-11-15T02:46:02.866Z,19.70
2022-11-15T02:48:49.176Z,19.48
2022-11-15T02:51:35.156Z,20.58
2022-11-15T02:54:23.689Z,20.52
2022-11-15T02:57:17.000Z,20.38
2022-11-15T03:00:09.595Z,20.70
2022-11-15T03:03:13.655Z,19.92
2022-11-15T03:06:09.057Z,19.80
2022-11-15T03:09:03.225Z,19.40
2022-11-15T03:11:55.894Z,19.85
2022-11-15T03:14:51.476Z,20.17
2022-11-15T03:17:42.012Z,20.55
2022-11-15T03:20:29.882Z,19.95
2022-11-15T03:23:15.674Z,19.85
2022-11-15T03:26:02.234Z,19.35
2022-11-15T03:28:51.676Z,18.97
2022-11-15T03:31:51.211Z,20.48
2022-11-15T03:34:41.916Z,20.35
2022-11-15T03:37:34.901Z,19.30
2022-11-15T03:40:25.383Z,20.05
2022-11-15T03:43:17.015Z,20.97
2022-11-15T03:46:07.405Z,20.35
2022-11-15T03:48:57.643Z,19.92
2022-11-15T03:51:43.840Z,21.13
2022-11-15T03:54:31.218Z,19.50
2022-11-15T03:57:17.003Z,21.07
2022-11-15T04:00:03.606Z,20.33
2022-11-15T04:02:49.407Z,19.55
2022-11-15T04:05:35.297Z,20.20
2022-11-15T04:08:21.224Z,19.95
2022-11-15T04:11:08.475Z,19.60
2022-11-15T04:13:54.430Z,19.67
2022-11-15T04:16:43.924Z,18.85
2022-11-15T04:19:48.655Z,20.38
2022-11-15T04:22:52.988Z,20.00
2022-11-15T04:25:39.244Z,20.33
2022-11-15T04:28:26.267Z,21.02
2022-11-15T04:31:12.042Z,20.42
2022-11-15T04:33:57.999Z,18.92
2022-11-15T04:37:02.503Z,19.50
2022-11-15T04:39:48.211Z,19.30
2022-11-15T04:42:33.967Z,19.90
2022-11-15T04:45:21.265Z,20.63
2022-11-15T04:48:06.931Z,20.17
2022-11-15T04:50:52.799Z,20.52
2022-11-15T04:53:38.731Z,20.63
2022-11-15T04:56:24.639Z,20.23
2022-11-15T04:59:10.552Z,21.65
2022-11-15T05:01:57.710Z,20.67
2022-11-15T05:04:43.619Z,20.33
2022-11-15T05:07:29.490Z,19.47
2022-11-15T05:10:15.371Z,19.98
2022-11-15T05:13:01.388Z,18.83
2022-11-15T05:15:48.174Z,20.98
2022-11-15T05:18:35.197Z,20.25
2022-11-15T05:21:21.975Z,20.83
2022-11-15T05:24:10.206Z,20.55
2022-11-15T05:26:55.967Z,19.60
2022-11-15T05:29:41.950Z,19.60
2022-11-15T05:32:29.598Z,20.15
2022-11-15T05:35:22.453Z,19.50
2022-11-15T05:38:08.899Z,18.70
2022-11-15T05:40:55.088Z,20.67
2022-11-15T05:43:42.715Z,19.90
2022-11-15T05:46:29.132Z,20.65
2022-11-15T05:49:18.229Z,20.77
2022-11-15T05:52:08.222Z,20.05
2022-11-15T05:54:54.762Z,21.30
2022-11-15T05:57:40.845Z,20.73
2022-11-15T06:00:26.676Z,20.92
2022-11-15T06:03:12.606Z,20.17
2022-11-15T06:05:59.028Z,19.60
2022-11-15T06:08:46.006Z,19.85
2022-11-15T06:11:31.960Z,21.85
2022-11-15T06:14:17.739Z,20.65
2022-11-15T06:17:08.548Z,20.90
2022-11-15T06:19:56.744Z,23.33
2022-11-15T06:22:42.600Z,23.45
2022-11-15T06:25:31.282Z,19.85
2022-11-15T06:28:17.270Z,21.70
2022-11-15T06:31:04.118Z,20.03
2022-11-15T06:33:50.548Z,21.38
2022-11-15T06:36:37.260Z,24.80
2022-11-15T06:39:22.981Z,23.00
2022-11-15T06:42:10.456Z,20.92
2022-11-15T06:44:56.324Z,20.53
2022-11-15T06:47:46.074Z,21.33
2022-11-15T06:50:31.692Z,20.88
2022-11-15T06:53:17.610Z,20.88
2022-11-15T06:56:06.605Z,20.13
2022-11-15T06:58:53.460Z,19.90
2022-11-15T07:01:39.274Z,20.50
2022-11-15T07:04:24.967Z,20.02
2022-11-15T07:07:10.894Z,21.42
2022-11-15T07:09:56.779Z,20.75
2022-11-15T07:12:42.417Z,22.10
2022-11-15T07:15:29.624Z,20.67
2022-11-15T07:18:15.615Z,22.30
2022-11-15T07:21:03.162Z,21.33
2022-11-15T07:23:48.659Z,21.60
2022-11-15T07:26:34.468Z,21.90
2022-11-15T07:29:20.310Z,22.17
2022-11-15T07:32:07.419Z,23.23
2022-11-15T07:34:53.207Z,24.35
2022-11-15T07:37:39.076Z,24.13
2022-11-15T07:40:25.458Z,24.20
2022-11-15T07:43:11.106Z,25.40
2022-11-15T07:45:59.337Z,23.83
2022-11-15T07:48:46.575Z,24.73
2022-11-15T07:51:32.296Z,26.30
2022-11-15T07:54:18.225Z,24.80
2022-11-15T07:57:07.530Z,24.75
2022-11-15T07:59:53.772Z,24.65
2022-11-15T08:02:39.767Z,22.98
2022-11-15T08:05:26.898Z,22.88
2022-11-15T08:08:12.877Z,21.63
2022-11-15T08:10:58.815Z,21.27
2022-11-15T08:13:44.487Z,21.45
2022-11-15T08:16:30.382Z,21.83
2022-11-15T08:19:16.352Z,20.27
2022-11-15T08:22:03.536Z,21.50
2022-11-15T08:24:49.389Z,19.85
2022-11-15T08:27:35.359Z,20.92
2022-11-15T08:30:21.644Z,21.10
2022-11-15T08:33:07.178Z,20.15
2022-11-15T08:35:53.026Z,20.30
2022-11-15T08:38:40.309Z,20.70
2022-11-15T08:41:30.946Z,19.80
2022-11-15T08:44:16.521Z,20.25
2022-11-15T08:47:02.331Z,20.58
2022-11-15T08:49:48.077Z,20.20
2022-11-15T08:52:34.123Z,19.98
2022-11-15T08:55:24.555Z,20.55
2022-11-15T08:58:10.914Z,20.23
2022-11-15T09:00:57.067Z,19.27
2022-11-15T09:03:42.770Z,18.60
2022-11-15T09:06:28.736Z,18.90
2022-11-15T09:09:14.656Z,19.27
2022-11-15T09:12:02.999Z,18.10
2022-11-15T09:14:48.778Z,18.67
2022-11-15T09:17:34.621Z,18.03
2022-11-15T09:20:20.429Z,17.60
2022-11-15T09:23:06.993Z,18.90
2022-11-15T09:25:53.147Z,17.73
2022-11-15T09:28:42.705Z,18.27
2022-11-15T09:31:28.694Z,17.17
2022-11-15T09:34:14.509Z,17.17
2022-11-15T09:37:00.430Z,16.92
2022-11-15T09:39:46.410Z,16.80
2022-11-15T09:42:47.823Z,17.40
2022-11-15T09:45:42.549Z,16.70
2022-11-15T09:48:49.340Z,17.75
2022-11-15T09:51:34.195Z,17.83
2022-11-15T09:57:05.435Z,16.02
2022-11-15T09:59:45.957Z,16.57
2022-11-15T10:02:27.316Z,16.15
2022-11-15T10:04:55.178Z,16.80
2022-11-15T10:07:27.487Z,16.17
2022-11-15T10:09:59.969Z,16.23
2022-11-15T10:12:28.661Z,14.30
2022-11-15T10:15:02.523Z,15.75
2022-11-15T10:17:51.494Z,14.98
2022-11-15T10:20:22.080Z,15.32
2022-11-15T10:22:52.236Z,15.10
2022-11-15T10:25:22.632Z,13.83
2022-11-15T10:27:56.223Z,13.98
2022-11-15T10:30:32.364Z,14.15
2022-11-15T10:33:12.433Z,14.82
2022-11-15T10:35:40.153Z,13.55
2022-11-15T10:38:09.051Z,13.73
2022-11-15T10:40:38.065Z,14.85
2022-11-15T10:43:13.590Z,14.40
2022-11-15T10:45:41.299Z,13.63
2022-11-15T10:48:27.914Z,14.80
2022-11-15T10:50:56.971Z,13.93
2022-11-15T10:53:29.716Z,14.30
2022-11-15T10:55:59.363Z,14.32
2022-11-15T10:58:34.272Z,14.20
2022-11-15T11:01:17.665Z,14.45
2022-11-15T11:04:00.188Z,14.30
2022-11-15T11:06:27.647Z,13.25
2022-11-15T11:08:57.519Z,13.93
2022-11-15T11:11:25.518Z,13.77
2022-11-15T11:13:53.392Z,13.70
2022-11-15T11:16:42.774Z,14.00
2022-11-15T11:19:40.137Z,12.73
2022-11-15T11:22:18.568Z,14.23
2022-11-15T11:24:54.474Z,14.32
2022-11-15T11:27:36.911Z,13.07
2022-11-15T11:30:10.337Z,14.10
2022-11-15T11:33:02.482Z,14.02
2022-11-15T11:35:36.814Z,13.60
2022-11-15T11:38:19.514Z,13.13
2022-11-15T11:41:05.127Z,13.90
2022-11-15T11:43:39.823Z,14.00
2022-11-15T11:46:24.067Z,14.15
2022-11-15T11:48:57.165Z,12.68
2022-11-15T11:51:31.591Z,13.57
2022-11-15T11:54:07.049Z,13.90
2022-11-15T11:56:38.113Z,14.63
2022-11-15T11:59:13.769Z,14.40
2022-11-15T12:01:44.284Z,13.85
2022-11-15T12:04:17.374Z,14.15
2022-11-15T12:06:51.675Z,13.45
2022-11-15T12:09:22.873Z,13.63
2022-11-15T12:11:56.266Z,14.20
2022-11-15T12:14:31.885Z,13.80
2022-11-15T12:17:00.108Z,13.20
2022-11-15T12:19:29.106Z,13.65
2022-11-15T12:22:04.046Z,13.23
2022-11-15T12:24:36.113Z,13.23
2022-11-15T12:27:08.207Z,13.25
2022-11-15T12:29:39.964Z,13.30
2022-11-15T12:32:19.912Z,13.05
2022-11-15T12:34:49.792Z,13.13
2022-11-15T12:37:56.062Z,12.90
2022-11-15T12:40:30.961Z,13.73
2022-11-15T12:43:01.505Z,13.32
2022-11-15T12:45:31.166Z,13.10
2022-11-15T12:48:58.382Z,13.60
2022-11-15T12:52:05.172Z,12.75
2022-11-15T12:54:52.668Z,13.00
2022-11-15T12:57:41.378Z,12.63
2022-11-15T13:00:45.256Z,12.45
2022-11-15T13:03:21.402Z,12.93
2022-11-15T13:06:09.852Z,12.57
2022-11-15T13:08:48.957Z,11.73
2022-11-15T13:11:45.588Z,11.85
2022-11-15T13:14:42.219Z,12.18
2022-11-15T13:17:28.581Z,12.10
2022-11-15T13:20:01.500Z,12.38
2022-11-15T13:22:48.072Z,12.20
2022-11-15T13:25:26.542Z,11.73
2022-11-15T13:27:55.575Z,11.05
2022-11-15T13:30:26.129Z,11.30
2022-11-15T13:32:54.369Z,10.48
2022-11-15T13:35:24.018Z,11.07
2022-11-15T13:37:53.064Z,10.68
2022-11-15T13:40:25.670Z,10.50
2022-11-15T13:42:53.038Z,10.37
2022-11-15T13:45:21.157Z,10.88
2022-11-15T13:47:55.769Z,10.75
2022-11-15T13:50:27.377Z,10.52
2022-11-15T13:52:57.910Z,10.32
2022-11-15T13:55:26.246Z,10.97
2022-11-15T13:57:57.765Z,11.07
2022-11-15T14:00:35.742Z,11.38
2022-11-15T14:03:16.542Z,10.70
2022-11-15T14:05:44.327Z,11.38
2022-11-15T14:08:24.728Z,11.63
2022-11-15T14:11:08.986Z,10.50
2022-11-15T14:13:36.552Z,11.48
2022-11-15T14:16:18.595Z,11.88
2022-11-15T14:18:50.065Z,10.70
2022-11-15T14:21:19.048Z,10.80
2022-11-15T14:23:46.899Z,11.13
2022-11-15T14:26:29.871Z,10.68
2022-11-15T14:28:57.334Z,11.10
2022-11-15T14:31:24.694Z,10.70
2022-11-15T14:33:53.315Z,10.77
2022-11-15T14:36:21.922Z,10.45
2022-11-15T14:38:49.558Z,10.88
2022-11-15T14:41:22.101Z,11.25
2022-11-15T14:43:50.475Z,12.85
2022-11-15T14:46:18.283Z,12.63
2022-11-15T14:48:46.107Z,11.30
2022-11-15T14:51:17.189Z,11.57
2022-11-15T14:53:45.604Z,12.48
2022-11-15T14:56:13.626Z,12.35
2022-11-15T14:58:41.175Z,13.40
2022-11-15T15:01:14.705Z,13.75
2022-11-15T15:03:42.056Z,13.10
2022-11-15T15:06:15.077Z,13.23
2022-11-15T15:08:47.003Z,12.15
2022-11-15T15:11:17.256Z,12.33
2022-11-15T15:13:44.506Z,12.15
2022-11-15T15:16:11.713Z,11.93
2022-11-15T15:18:38.947Z,12.35
2022-11-15T15:21:23.501Z,14.05
2022-11-15T15:23:52.503Z,13.37
2022-11-15T15:26:19.743Z,13.05
2022-11-15T15:28:49.404Z,13.23
2022-11-15T15:31:16.710Z,12.90
2022-11-15T15:33:44.075Z,13.60
2022-11-15T15:36:13.177Z,13.93
2022-11-15T15:38:43.318Z,13.90
2022-11-15T15:41:14.240Z,13.50
2022-11-15T15:43:41.671Z,14.18
2022-11-15T15:46:12.446Z,13.75
2022-11-15T15:48:40.454Z,13.67
2022-11-15T15:51:15.427Z,13.73
2022-11-15T15:53:47.250Z,13.85
2022-11-15T15:56:15.916Z,13.70
2022-11-15T15:58:43.129Z,13.50
2022-11-15T16:01:10.428Z,13.70
2022-11-15T16:03:37.719Z,14.43
2022-11-15T16:06:06.055Z,14.50
2022-11-15T16:08:47.513Z,15.05
2022-11-15T16:11:22.463Z,14.98
2022-11-15T16:13:49.712Z,14.97
2022-11-15T16:16:17.024Z,14.25
2022-11-15T16:18:44.214Z,13.73
2022-11-15T16:21:11.414Z,14.10
2022-11-15T16:23:38.585Z,14.55
2022-11-15T16:26:18.761Z,14.30
2022-11-15T16:28:47.334Z,14.48
2022-11-15T16:31:14.553Z,15.32
2022-11-15T16:33:41.930Z,15.90
2022-11-15T16:36:23.307Z,15.60
2022-11-15T16:38:53.674Z,16.70
2022-11-15T16:41:20.890Z,17.98
2022-11-15T16:43:49.778Z,17.35
2022-11-15T16:46:19.359Z,17.67
2022-11-15T16:48:47.120Z,19.00
2022-11-15T16:51:14.531Z,18.30
2022-11-15T16:53:42.174Z,19.30
2022-11-15T16:56:20.850Z,18.67
2022-11-15T16:58:49.430Z,20.73
2022-11-15T17:01:20.148Z,19.98
2022-11-15T17:03:47.466Z,20.73
2022-11-15T17:06:15.466Z,22.27
2022-11-15T17:08:42.708Z,22.50
2022-11-15T17:11:11.725Z,21.90
2022-11-15T17:13:38.944Z,23.00
2022-11-15T17:16:10.361Z,23.50
2022-11-15T17:18:38.109Z,24.17
2022-11-15T17:21:07.271Z,24.67
2022-11-15T17:23:34.875Z,25.17
2022-11-15T17:26:23.732Z,25.92
2022-11-15T17:28:54.915Z,24.93
2022-11-15T17:31:23.472Z,24.13
2022-11-15T17:33:50.695Z,24.77
2022-11-15T17:36:17.953Z,25.90
2022-11-15T17:38:50.282Z,24.45
2022-11-15T17:41:17.615Z,25.43
2022-11-15T17:43:44.843Z,25.15
2022-11-15T17:46:13.740Z,24.98
2022-11-15T17:48:43.546Z,25.23
2022-11-15T17:51:12.803Z,25.08
2022-11-15T17:53:41.236Z,24.83
2022-11-15T17:56:10.567Z,24.27
2022-11-15T17:58:37.899Z,24.63
2022-11-15T18:01:06.353Z,24.55
2022-11-15T18:03:35.315Z,25.02
2022-11-15T18:06:04.799Z,24.60
2022-11-15T18:08:32.231Z,24.77
2022-11-15T18:11:04.553Z,24.48
2022-11-15T18:13:32.453Z,24.65
2022-11-15T18:16:03.698Z,25.05
2022-11-15T18:18:32.171Z,24.97
2022-11-15T18:21:01.182Z,24.15
2022-11-15T18:23:29.905Z,25.30
2022-11-15T18:25:57.265Z,24.75
2022-11-15T18:28:30.965Z,25.20
2022-11-15T18:30:58.807Z,24.70
2022-11-15T18:33:26.981Z,25.08
2022-11-15T18:36:01.987Z,25.23
2022-11-15T18:38:31.080Z,24.65
2022-11-15T18:41:04.770Z,23.77
2022-11-15T18:43:32.564Z,24.30
2022-11-15T18:46:03.075Z,25.02
2022-11-15T18:48:30.855Z,24.70
2022-11-15T18:51:04.911Z,24.00
2022-11-15T18:53:34.749Z,24.77
2022-11-15T18:56:03.189Z,25.10
2022-11-15T18:58:31.440Z,24.30
2022-11-15T19:01:02.884Z,24.13
2022-11-15T19:03:34.515Z,24.20
2022-11-15T19:06:03.363Z,22.77
2022-11-15T19:08:35.209Z,24.73
2022-11-15T19:11:06.291Z,24.25
2022-11-15T19:13:34.355Z,24.50
2022-11-15T19:16:03.533Z,23.17
2022-11-15T19:18:32.160Z,23.00
2022-11-15T19:21:02.889Z,24.50
2022-11-15T19:23:33.503Z,24.23
2022-11-15T19:26:02.101Z,23.45
2022-11-15T19:28:31.684Z,25.48
2022-11-15T19:31:04.225Z,24.42
2022-11-15T19:33:32.244Z,23.43
2022-11-15T19:36:01.031Z,24.85
2022-11-15T19:38:30.050Z,23.50
2022-11-15T19:41:00.598Z,24.75
2022-11-15T19:43:28.928Z,23.13
2022-11-15T19:46:02.253Z,23.60
2022-11-15T19:48:31.581Z,23.45
2022-11-15T19:51:01.520Z,23.55
2022-11-15T19:53:34.588Z,23.10
2022-11-15T19:56:04.479Z,22.60
2022-11-15T19:58:32.247Z,23.43
2022-11-15T20:01:02.996Z,22.55
2022-11-15T20:03:31.076Z,22.08
2022-11-15T20:06:03.057Z,21.83
2022-11-15T20:08:30.673Z,21.02
2022-11-15T20:10:59.599Z,22.00
2022-11-15T20:13:27.558Z,20.52
2022-11-15T20:15:55.310Z,21.13
2022-11-15T20:18:25.099Z,20.92
2022-11-15T20:20:52.589Z,21.65
2022-11-15T20:23:19.788Z,20.70
2022-11-15T20:25:48.323Z,22.33
2022-11-15T20:28:17.681Z,21.73
2022-11-15T20:30:45.440Z,21.92
2022-11-15T20:33:12.744Z,21.67
2022-11-15T20:35:41.440Z,21.87
2022-11-15T20:38:08.643Z,20.80
2022-11-15T20:40:36.347Z,20.80
2022-11-15T20:43:03.718Z,21.00
2022-11-15T20:45:31.236Z,20.65
2022-11-15T20:47:58.760Z,19.80
2022-11-15T20:50:42.202Z,20.52
2022-11-15T20:53:13.137Z,19.45
2022-11-15T20:55:40.981Z,20.00
2022-11-15T20:58:08.684Z,19.58
2022-11-15T21:00:36.953Z,20.30
2022-11-15T21:03:07.672Z,19.67
2022-11-15T21:05:35.315Z,19.55
2022-11-15T21:08:02.607Z,18.95
2022-11-15T21:10:49.986Z,20.15
2022-11-15T21:13:17.454Z,19.60
2022-11-15T21:15:44.670Z,18.63
2022-11-15T21:18:11.888Z,20.40
2022-11-15T21:20:39.059Z,19.58
2022-11-15T21:23:06.266Z,19.88
2022-11-15T21:25:34.843Z,20.63
2022-11-15T21:28:02.127Z,19.65
2022-11-15T21:30:29.428Z,20.33
2022-11-15T21:32:56.802Z,20.70
2022-11-15T21:35:24.131Z,19.80
2022-11-15T21:37:56.416Z,20.53
2022-11-15T21:40:24.634Z,20.58
2022-11-15T21:42:53.181Z,20.27
2022-11-15T21:45:20.445Z,20.08
2022-11-15T21:47:47.619Z,20.25
2022-11-15T21:50:14.941Z,19.47
2022-11-15T21:52:42.175Z,19.98
2022-11-15T21:55:09.886Z,20.08
2022-11-15T21:57:37.094Z,20.58
2022-11-15T22:00:25.419Z,20.35
2022-11-15T22:02:52.627Z,18.83
2022-11-15T22:05:19.818Z,19.55
2022-11-15T22:07:47.061Z,19.40
2022-11-15T22:10:14.466Z,19.83
2022-11-15T22:12:42.136Z,20.13
2022-11-15T22:15:11.026Z,19.80
2022-11-15T22:17:57.025Z,19.85
2022-11-15T22:23:11.614Z,19.95
2022-11-15T22:25:38.869Z,19.77
2022-11-15T22:28:06.119Z,19.23
2022-11-15T22:30:34.761Z,19.92
2022-11-15T22:33:01.967Z,20.15
2022-11-15T22:35:29.162Z,19.33
2022-11-15T22:37:56.429Z,19.73
2022-11-15T22:40:23.616Z,20.60
2022-11-15T22:42:50.783Z,19.88
2022-11-15T22:45:18.052Z,19.33
2022-11-15T22:47:46.569Z,20.52
2022-11-15T22:50:13.919Z,20.33
2022-11-15T22:52:41.392Z,20.13
2022-11-15T22:55:09.299Z,19.90
2022-11-15T22:57:39.604Z,19.02
2022-11-15T23:00:10.620Z,19.83
2022-11-15T23:02:38.519Z,20.00
2022-11-15T23:05:07.915Z,19.97
2022-11-15T23:07:35.467Z,20.05
2022-11-15T23:10:28.805Z,19.30
2022-11-15T23:13:17.425Z,18.80
2022-11-15T23:16:04.830Z,20.15
2022-11-15T23:18:34.417Z,19.33
2022-11-15T23:21:09.809Z,19.60
2022-11-15T23:23:37.256Z,19.55
2022-11-15T23:26:04.549Z,20.35
2022-11-15T23:28:33.154Z,20.10
2022-11-15T23:31:23.299Z,19.13
2022-11-15T23:33:59.797Z,18.58
2022-11-15T23:36:29.351Z,19.52
2022-11-15T23:38:56.695Z,19.88
2022-11-15T23:41:24.618Z,19.70
2022-11-15T23:43:52.322Z,19.53
2022-11-15T23:46:19.705Z,19.25
2022-11-15T23:48:47.064Z,19.70
2022-11-15T23:51:14.547Z,19.48
2022-11-15T23:53:43.413Z,20.33
2022-11-15T23:56:13.378Z,19.40
2022-11-15T23:58:40.925Z,18.23
